Time;durP1;ratioP1;P1;durP2;ratioP2;P2;SDS_P1;SDS_P2;PMS_P1;PMS_P2;Temp;Humidity;BMP_temperature;BMP_pressure;BME280_temperature;BME280_humidity;BME280_pressure;Samples;Min_cycle;Max_cycle;Signal;HPM_P1;HPM_P2
2022/11/04 00:01:45;;;;;;;4.00;2.50;;;12.80;99.90;;;;;;4954854;28;20442;-71
2022/11/04 00:04:13;;;;;;;6.30;3.10;;;12.90;99.90;;;;;;4953559;28;20577;-71
2022/11/04 00:06:39;;;;;;;4.20;2.97;;;12.80;99.90;;;;;;4955368;28;20591;-71
2022/11/04 00:09:08;;;;;;;6.23;3.30;;;12.80;99.90;;;;;;4953709;28;20433;-71
2022/11/04 00:14:17;;;;;;;4.50;3.70;;;12.90;99.90;;;;;;4955573;28;20504;-71
2022/11/04 00:19:28;;;;;;;3.37;2.83;;;13.00;99.90;;;;;;4954674;28;20777;-71
2022/11/04 00:29:59;;;;;;;3.23;2.50;;;13.00;99.90;;;;;;4955890;28;20492;-71
2022/11/04 00:35:10;;;;;;;3.80;2.40;;;13.00;99.90;;;;;;4959118;28;21039;-72
2022/11/04 00:37:40;;;;;;;3.80;2.37;;;12.90;99.90;;;;;;4957987;28;20427;-72
2022/11/04 00:40:07;;;;;;;4.73;2.63;;;12.90;99.90;;;;;;4953237;28;20474;-72
2022/11/04 00:42:33;;;;;;;3.67;2.10;;;13.00;99.90;;;;;;4954400;28;20708;-71
2022/11/04 00:44:59;;;;;;;2.90;2.10;;;13.00;99.90;;;;;;4954086;28;20627;-72
2022/11/04 00:47:24;;;;;;;2.80;1.83;;;13.00;99.90;;;;;;4952327;28;20623;-72
2022/11/04 00:49:50;;;;;;;2.00;1.50;;;13.10;99.90;;;;;;4955164;28;20376;-72
2022/11/04 00:52:16;;;;;;;3.13;1.70;;;13.00;99.90;;;;;;4952568;28;20683;-72
2022/11/04 00:54:42;;;;;;;2.40;1.80;;;13.00;99.90;;;;;;4951715;28;20474;-73
2022/11/04 00:57:11;;;;;;;3.10;1.90;;;13.00;99.90;;;;;;4951660;28;20446;-72
2022/11/04 00:59:37;;;;;;;3.20;2.20;;;13.00;99.90;;;;;;4951589;28;20687;-72
2022/11/04 01:02:03;;;;;;;2.37;1.73;;;13.00;99.90;;;;;;4952756;28;20491;-72
2022/11/04 01:04:29;;;;;;;2.40;1.40;;;12.90;99.90;;;;;;4950116;28;20214;-72
2022/11/04 01:06:54;;;;;;;2.47;2.00;;;12.90;99.90;;;;;;4952573;28;20439;-72
2022/11/04 01:09:20;;;;;;;3.37;1.63;;;12.90;99.90;;;;;;4951510;28;21589;-72
2022/11/04 01:11:45;;;;;;;2.37;1.80;;;13.00;99.90;;;;;;4953371;28;20182;-72
2022/11/04 01:14:11;;;;;;;3.07;2.03;;;13.00;99.90;;;;;;4953208;28;20657;-71
2022/11/04 01:16:38;;;;;;;4.33;2.10;;;13.00;99.90;;;;;;4955817;28;20190;-71
2022/11/04 01:19:03;;;;;;;4.20;1.90;;;12.80;99.90;;;;;;4952735;28;20470;-71
2022/11/04 01:21:29;;;;;;;2.83;2.20;;;12.90;99.90;;;;;;4951211;28;20456;-71
2022/11/04 01:23:55;;;;;;;5.20;2.03;;;13.00;99.90;;;;;;4952658;28;20183;-72
2022/11/04 01:26:23;;;;;;;3.37;1.80;;;13.00;99.90;;;;;;4952769;28;20260;-72
2022/11/04 01:28:50;;;;;;;3.50;1.90;;;12.80;99.90;;;;;;4952109;28;20205;-71
2022/11/04 01:31:17;;;;;;;2.80;1.60;;;12.90;99.90;;;;;;4953901;28;20437;-71
2022/11/04 01:33:43;;;;;;;2.33;1.60;;;12.80;99.90;;;;;;4954794;28;20443;-72
2022/11/04 01:36:10;;;;;;;2.57;1.40;;;12.90;99.90;;;;;;4954904;28;20437;-71
2022/11/04 01:38:36;;;;;;;3.40;1.70;;;12.90;99.90;;;;;;4952838;28;20191;-70
2022/11/04 01:41:02;;;;;;;3.63;1.73;;;12.80;99.90;;;;;;4948732;28;20966;-71
2022/11/04 01:43:56;;;;;;;2.30;1.40;;;12.80;99.90;;;;;;4951605;28;20978;-70
2022/11/04 01:46:30;;;;;;;2.37;1.77;;;12.80;99.90;;;;;;4951674;28;20438;-71
2022/11/04 01:49:03;;;;;;;3.80;1.70;;;12.70;99.90;;;;;;4952374;28;20445;-70
2022/11/04 01:51:34;;;;;;;2.90;1.73;;;12.60;99.90;;;;;;4952413;28;20446;-71
2022/11/04 01:54:00;;;;;;;2.60;1.40;;;12.70;99.90;;;;;;4956866;28;20481;-71
2022/11/04 01:56:26;;;;;;;2.30;1.60;;;12.80;99.90;;;;;;4947411;28;20488;-70
2022/11/04 01:58:56;;;;;;;2.13;1.50;;;12.70;99.90;;;;;;4953258;28;20553;-71
2022/11/04 02:01:22;;;;;;;3.00;1.83;;;12.70;99.90;;;;;;4952069;28;20441;-71
2022/11/04 02:04:24;;;;;;;1.97;1.53;;;12.80;99.90;;;;;;4953394;28;20951;-71
2022/11/04 02:06:42;;;;;;;5.47;1.67;;;12.70;99.90;;;;;;4952469;28;20613;-72
2022/11/04 02:09:08;;;;;;;1.93;1.37;;;12.60;99.90;;;;;;4954119;28;20871;-70
2022/11/04 02:14:18;;;;;;;2.27;1.50;;;12.60;99.90;;;;;;4951240;28;20712;-71
2022/11/04 02:16:45;;;;;;;2.47;1.70;;;12.60;99.90;;;;;;4949337;28;20447;-71
2022/11/04 02:19:48;;;;;;;5.33;1.60;;;12.50;99.90;;;;;;4951871;28;20256;-70
2022/11/04 02:22:51;;;;;;;3.63;1.63;;;12.50;99.90;;;;;;4950210;28;20441;-72
2022/11/04 02:25:56;;;;;;;2.30;1.63;;;12.40;99.90;;;;;;4952229;28;21088;-70
2022/11/04 02:28:50;;;;;;;3.63;1.43;;;12.40;99.90;;;;;;4954942;28;20465;-71
2022/11/04 02:31:44;;;;;;;2.20;1.63;;;12.40;99.90;;;;;;4951720;28;20845;-71
2022/11/04 02:34:15;;;;;;;3.80;1.63;;;12.30;99.90;;;;;;4953627;28;20824;-70
2022/11/04 02:36:53;;;;;;;2.60;1.60;;;12.40;99.90;;;;;;4950574;28;20448;-72
2022/11/04 02:39:47;;;;;;;3.43;1.50;;;12.40;99.90;;;;;;4948963;28;21078;-71
2022/11/04 02:42:53;;;;;;;2.87;1.60;;;12.40;99.90;;;;;;4947226;28;20468;-71
2022/11/04 02:45:42;;;;;;;4.17;1.80;;;12.40;99.90;;;;;;4960347;28;20985;-71
2022/11/04 02:48:19;;;;;;;2.20;1.50;;;12.40;99.90;;;;;;4945013;28;20442;-71
2022/11/04 02:50:51;;;;;;;2.70;1.80;;;12.40;99.90;;;;;;4949335;28;20793;-71
2022/11/04 02:53:29;;;;;;;3.83;1.90;;;12.50;99.90;;;;;;4947993;28;20448;-71
2022/11/04 02:55:57;;;;;;;2.50;1.57;;;12.50;99.90;;;;;;4950480;28;20484;-71
2022/11/04 02:58:29;;;;;;;2.70;1.50;;;12.50;99.90;;;;;;4951290;28;20816;-71
2022/11/04 03:00:56;;;;;;;3.20;1.50;;;12.50;99.90;;;;;;4951024;28;20516;-70
2022/11/04 03:03:26;;;;;;;3.40;1.50;;;12.50;99.90;;;;;;4954045;28;20596;-71
2022/11/04 03:05:54;;;;;;;4.47;1.60;;;12.50;99.90;;;;;;4954707;28;20519;-71
2022/11/04 03:08:28;;;;;;;2.30;1.60;;;12.50;99.90;;;;;;4954387;28;20850;-71
2022/11/04 03:11:09;;;;;;;2.43;1.60;;;12.40;99.90;;;;;;4953181;28;20445;-71
2022/11/04 03:13:45;;;;;;;2.53;1.80;;;12.50;99.90;;;;;;4956015;28;21906;-72
2022/11/04 03:16:18;;;;;;;2.60;1.53;;;12.40;99.90;;;;;;4955248;28;20442;-72
2022/11/04 03:18:56;;;;;;;2.17;1.50;;;12.40;99.90;;;;;;4955423;28;20459;-71
2022/11/04 03:21:23;;;;;;;2.97;1.53;;;12.40;99.90;;;;;;4954942;28;20434;-71
2022/11/04 03:23:48;;;;;;;3.70;1.67;;;12.30;99.90;;;;;;4957661;28;20442;-71
2022/11/04 03:26:38;;;;;;;2.43;1.50;;;12.30;99.90;;;;;;4953318;28;20499;-71
2022/11/04 03:29:27;;;;;;;4.03;1.70;;;12.20;99.90;;;;;;4953326;28;20568;-72
2022/11/04 03:32:09;;;;;;;2.40;1.60;;;12.10;99.90;;;;;;4951618;28;20446;-72
2022/11/04 03:34:36;;;;;;;4.10;1.80;;;12.10;99.90;;;;;;4949918;28;21062;-71
2022/11/04 03:37:02;;;;;;;3.93;1.77;;;12.10;99.90;;;;;;4951748;28;20446;-71
2022/11/04 03:39:28;;;;;;;2.37;1.63;;;12.00;99.90;;;;;;4951967;28;20840;-71
2022/11/04 03:41:59;;;;;;;4.50;2.10;;;11.90;99.90;;;;;;4955243;28;20812;-71
2022/11/04 03:44:25;;;;;;;2.70;1.60;;;12.00;99.90;;;;;;4951409;28;20457;-71
2022/11/04 03:46:54;;;;;;;6.70;2.17;;;12.00;99.90;;;;;;4950913;28;20866;-71
2022/11/04 03:49:22;;;;;;;2.57;1.43;;;12.00;99.90;;;;;;4953761;28;21434;-71
2022/11/04 03:51:49;;;;;;;4.40;1.70;;;12.00;99.90;;;;;;4946238;28;20538;-71
2022/11/04 03:54:16;;;;;;;6.60;1.73;;;12.10;99.90;;;;;;4954154;28;20546;-72
2022/11/04 03:57:19;;;;;;;2.10;1.60;;;12.00;99.90;;;;;;4953858;28;20455;-72
2022/11/04 03:59:44;;;;;;;4.80;1.63;;;12.00;99.90;;;;;;4955237;28;20470;-72
2022/11/04 04:02:33;;;;;;;5.67;1.50;;;12.00;99.90;;;;;;4950358;28;20509;-72
2022/11/04 04:05:08;;;;;;;3.03;1.90;;;12.00;99.90;;;;;;4950352;28;20255;-72
2022/11/04 04:07:49;;;;;;;3.97;1.90;;;11.90;99.90;;;;;;4953055;28;20449;-72
2022/11/04 04:10:40;;;;;;;3.77;1.90;;;11.80;99.90;;;;;;4951224;28;20568;-72
2022/11/04 04:13:22;;;;;;;2.57;1.60;;;12.00;99.90;;;;;;4951256;28;20449;-71
2022/11/04 04:16:17;;;;;;;3.30;2.07;;;11.90;99.90;;;;;;4950876;28;20539;-72
2022/11/04 04:18:56;;;;;;;3.30;2.00;;;11.90;99.90;;;;;;4949790;28;20446;-71
2022/11/04 04:21:27;;;;;;;2.43;1.90;;;11.80;99.90;;;;;;4944133;28;20461;-72
2022/11/04 04:29:28;;;;;;;5.00;2.13;;;11.90;99.90;;;;;;4949150;28;20476;-72
2022/11/04 04:31:56;;;;;;;3.20;2.03;;;11.90;99.90;;;;;;4949185;28;20470;-72
2022/11/04 04:34:33;;;;;;;4.80;2.10;;;11.90;99.90;;;;;;4947655;28;21053;-72
2022/11/04 04:37:07;;;;;;;6.90;2.10;;;11.90;99.90;;;;;;4949425;28;20446;-72
2022/11/04 04:45:31;;;;;;;7.67;2.00;;;12.00;99.90;;;;;;4951600;28;20496;-72
2022/11/04 04:47:57;;;;;;;3.63;1.90;;;11.90;99.90;;;;;;4952256;28;20441;-72
2022/11/04 04:50:27;;;;;;;3.27;1.63;;;12.00;99.90;;;;;;4952341;28;21003;-73
2022/11/04 04:52:56;;;;;;;5.33;2.03;;;12.00;99.90;;;;;;4952140;28;21073;-72
2022/11/04 04:55:22;;;;;;;7.37;1.90;;;12.00;99.90;;;;;;4952712;28;20492;-72
2022/11/04 04:57:47;;;;;;;2.73;1.47;;;12.00;99.90;;;;;;4954234;28;20446;-72
2022/11/04 05:00:16;;;;;;;2.67;1.60;;;12.00;99.90;;;;;;4955070;28;20644;-72
2022/11/04 05:02:42;;;;;;;2.57;1.80;;;12.00;99.90;;;;;;4953779;28;20188;-71
2022/11/04 05:05:08;;;;;;;6.30;1.90;;;12.00;99.90;;;;;;4951071;28;20492;-72
2022/11/04 05:07:34;;;;;;;4.10;2.00;;;11.90;99.90;;;;;;4951486;28;20876;-72
2022/11/04 05:09:59;;;;;;;2.93;1.60;;;11.80;99.90;;;;;;4953060;28;20526;-72
2022/11/04 05:12:25;;;;;;;2.33;1.40;;;11.90;99.90;;;;;;4955210;28;20225;-72
2022/11/04 05:14:50;;;;;;;3.20;1.70;;;11.90;99.90;;;;;;4956304;28;20587;-72
2022/11/04 05:17:16;;;;;;;7.10;2.13;;;11.90;99.90;;;;;;4953538;28;20199;-71
2022/11/04 05:19:41;;;;;;;4.47;1.80;;;12.00;99.90;;;;;;4952464;28;20222;-72
2022/11/04 05:22:07;;;;;;;4.10;1.87;;;12.00;99.90;;;;;;4952214;28;20190;-72
2022/11/04 05:24:32;;;;;;;2.40;1.70;;;11.90;99.90;;;;;;4952894;28;20206;-72
2022/11/04 05:26:58;;;;;;;4.63;1.50;;;11.90;99.90;;;;;;4955858;28;20340;-72
2022/11/04 05:29:24;;;;;;;2.93;1.90;;;12.00;99.90;;;;;;4949277;28;20236;-72
2022/11/04 05:31:49;;;;;;;2.20;1.60;;;12.00;99.90;;;;;;4950415;28;20278;-72
2022/11/04 05:34:15;;;;;;;3.63;1.97;;;11.90;99.90;;;;;;4953663;28;20214;-72
2022/11/04 05:36:40;;;;;;;2.10;1.60;;;12.00;99.90;;;;;;4951914;28;20202;-72
2022/11/04 05:39:09;;;;;;;2.10;1.70;;;12.00;99.90;;;;;;4950681;28;20312;-72
2022/11/04 05:41:35;;;;;;;3.20;1.43;;;12.00;99.90;;;;;;4950786;28;20195;-72
2022/11/04 05:44:02;;;;;;;5.73;1.90;;;12.00;99.90;;;;;;4949972;28;20465;-72
2022/11/04 05:46:29;;;;;;;3.10;2.03;;;12.00;99.90;;;;;;4946742;28;20221;-72
2022/11/04 05:48:54;;;;;;;5.07;1.80;;;11.90;99.90;;;;;;4952458;28;20438;-73
2022/11/04 05:51:23;;;;;;;2.93;2.00;;;11.90;99.90;;;;;;4948237;28;20535;-72
2022/11/04 05:53:49;;;;;;;5.80;3.40;;;12.00;99.90;;;;;;4951820;28;20624;-72
2022/11/04 05:56:14;;;;;;;8.43;2.33;;;12.00;99.90;;;;;;4950568;28;20438;-72
2022/11/04 05:58:40;;;;;;;4.40;1.80;;;12.00;99.90;;;;;;4950723;28;21001;-73
2022/11/04 06:01:32;;;;;;;6.20;1.80;;;12.00;99.90;;;;;;4949990;28;20508;-71
2022/11/04 06:03:59;;;;;;;5.40;1.67;;;12.00;99.90;;;;;;4948274;28;20215;-72
2022/11/04 06:06:26;;;;;;;2.67;1.60;;;12.00;99.90;;;;;;4948389;28;20438;-72
2022/11/04 06:08:52;;;;;;;2.90;1.90;;;12.00;99.90;;;;;;4952958;28;20441;-72
2022/11/04 06:11:19;;;;;;;2.50;1.70;;;12.00;99.90;;;;;;4945287;28;20438;-72
2022/11/04 06:13:44;;;;;;;3.70;1.83;;;12.00;99.90;;;;;;4951265;28;20455;-72
2022/11/04 06:16:10;;;;;;;3.03;1.90;;;12.00;99.90;;;;;;4946735;28;20815;-72
2022/11/04 06:18:36;;;;;;;3.23;1.60;;;12.00;99.90;;;;;;4946478;28;20201;-72
2022/11/04 06:21:13;;;;;;;3.00;1.93;;;12.00;99.90;;;;;;4946576;28;20210;-72
2022/11/04 06:23:43;;;;;;;3.93;1.70;;;12.00;99.90;;;;;;4945188;28;20606;-72
2022/11/04 06:26:09;;;;;;;4.93;2.00;;;12.00;99.90;;;;;;4948354;28;20470;-72
2022/11/04 06:28:35;;;;;;;4.43;2.10;;;12.00;99.90;;;;;;4948564;28;20451;-71
2022/11/04 06:31:03;;;;;;;4.53;1.90;;;12.00;99.90;;;;;;4950298;28;20457;-71
2022/11/04 06:33:29;;;;;;;5.73;2.73;;;12.00;99.90;;;;;;4947216;28;20454;-71
2022/11/04 06:35:59;;;;;;;3.23;2.20;;;12.00;99.90;;;;;;4948846;28;20461;-72
2022/11/04 06:38:28;;;;;;;4.73;2.20;;;12.00;99.90;;;;;;4946341;28;20438;-72
2022/11/04 06:40:53;;;;;;;3.80;1.60;;;12.00;99.90;;;;;;4963360;28;20967;-72
2022/11/04 06:43:19;;;;;;;3.70;2.17;;;12.00;99.90;;;;;;4956127;28;20486;-72
2022/11/04 06:45:55;;;;;;;3.57;2.03;;;12.00;99.90;;;;;;4956300;28;20230;-71
2022/11/04 06:48:21;;;;;;;6.13;3.40;;;12.00;99.90;;;;;;4952757;28;21024;-71
2022/11/04 06:50:46;;;;;;;5.70;2.30;;;12.10;99.90;;;;;;4955304;28;20449;-71
2022/11/04 06:53:12;;;;;;;6.33;2.50;;;12.10;99.90;;;;;;4958454;28;20214;-71
2022/11/04 06:55:37;;;;;;;3.60;2.10;;;12.10;99.90;;;;;;4953379;28;20257;-71
2022/11/04 06:58:03;;;;;;;4.27;2.17;;;12.10;99.90;;;;;;4953851;28;20186;-71
2022/11/04 07:00:28;;;;;;;4.10;2.60;;;12.10;99.90;;;;;;4952808;28;20214;-72
2022/11/04 07:02:54;;;;;;;6.03;2.63;;;12.10;99.90;;;;;;4960190;28;20187;-72
2022/11/04 07:05:20;;;;;;;3.93;2.00;;;12.10;99.90;;;;;;4955198;28;20210;-71
2022/11/04 07:07:45;;;;;;;2.70;2.00;;;12.10;99.90;;;;;;4948449;28;20231;-72
2022/11/04 07:10:11;;;;;;;3.00;2.37;;;12.20;99.90;;;;;;4945406;28;20746;-76
2022/11/04 07:12:36;;;;;;;4.47;2.30;;;12.30;99.90;;;;;;4952645;28;20582;-75
2022/11/04 07:15:02;;;;;;;9.73;2.60;;;12.30;99.90;;;;;;4951026;28;20888;-72
2022/11/04 07:17:27;;;;;;;4.10;2.43;;;12.30;99.90;;;;;;4953862;28;20252;-72
2022/11/04 07:19:53;;;;;;;2.63;2.00;;;12.30;99.90;;;;;;4959414;28;20307;-71
2022/11/04 07:22:19;;;;;;;3.97;2.27;;;12.40;99.90;;;;;;4952630;28;20194;-71
2022/11/04 07:24:44;;;;;;;2.80;2.00;;;12.40;99.90;;;;;;4955780;28;20880;-74
2022/11/04 07:27:10;;;;;;;4.77;2.33;;;12.50;99.90;;;;;;4958607;28;20324;-76
2022/11/04 07:29:36;;;;;;;3.77;2.17;;;12.50;99.90;;;;;;4949913;28;20229;-74
2022/11/04 07:32:01;;;;;;;3.97;2.30;;;12.50;99.90;;;;;;4952438;28;20604;-76
2022/11/04 07:34:27;;;;;;;4.80;2.20;;;12.60;99.90;;;;;;4949892;28;20206;-75
2022/11/04 07:36:53;;;;;;;4.40;2.67;;;12.60;99.90;;;;;;4952198;28;20560;-82
2022/11/04 07:39:18;;;;;;;5.47;2.63;;;12.70;99.90;;;;;;4950881;28;20272;-74
2022/11/04 07:41:44;;;;;;;6.93;3.20;;;12.70;99.90;;;;;;4950562;28;20218;-75
2022/11/04 07:44:12;;;;;;;5.73;3.13;;;12.70;99.90;;;;;;4951032;28;20474;-74
2022/11/04 07:46:38;;;;;;;4.87;2.20;;;12.80;99.90;;;;;;4949718;28;20259;-71
2022/11/04 07:49:04;;;;;;;12.30;3.57;;;12.80;99.90;;;;;;4953302;28;20861;-71
2022/11/04 07:51:31;;;;;;;3.50;2.50;;;12.80;99.90;;;;;;4950998;28;20607;-70
2022/11/04 07:53:58;;;;;;;3.70;2.23;;;12.90;99.90;;;;;;4950796;28;20589;-71
2022/11/04 07:56:23;;;;;;;3.47;2.20;;;12.90;99.90;;;;;;4950285;28;21152;-71
2022/11/04 07:58:49;;;;;;;5.63;2.47;;;12.90;99.90;;;;;;4950132;28;20700;-71
2022/11/04 08:01:18;;;;;;;5.07;3.17;;;13.00;99.90;;;;;;4949643;28;20563;-72
2022/11/04 08:03:44;;;;;;;6.90;2.50;;;13.00;99.90;;;;;;4946524;28;20508;-71
2022/11/04 08:06:13;;;;;;;4.50;2.60;;;13.00;99.90;;;;;;4948965;28;20432;-69
2022/11/04 08:08:39;;;;;;;6.20;1.90;;;13.10;99.90;;;;;;4951083;28;20452;-71
2022/11/04 08:11:10;;;;;;;3.13;1.90;;;13.10;99.90;;;;;;4948576;28;20995;-71
2022/11/04 08:13:37;;;;;;;7.60;2.37;;;13.10;99.90;;;;;;4948131;28;20207;-70
2022/11/04 08:16:17;;;;;;;8.43;2.30;;;13.10;99.90;;;;;;4951101;28;20453;-68
2022/11/04 08:18:44;;;;;;;9.00;2.20;;;13.10;99.90;;;;;;4950269;28;20455;-68
2022/11/04 08:21:11;;;;;;;5.30;3.13;;;13.20;99.90;;;;;;4955921;28;20525;-68
2022/11/04 08:23:37;;;;;;;11.07;6.70;;;13.20;99.90;;;;;;4949824;28;20447;-68
2022/11/04 08:26:10;;;;;;;5.33;3.10;;;13.20;99.90;;;;;;4952478;28;21060;-69
2022/11/04 08:28:36;;;;;;;3.23;2.23;;;13.20;99.90;;;;;;4950093;28;20450;-76
2022/11/04 08:31:12;;;;;;;5.07;2.23;;;13.30;99.90;;;;;;4951004;28;20449;-73
2022/11/04 08:33:38;;;;;;;4.80;1.93;;;13.30;99.90;;;;;;4949942;28;20466;-72
2022/11/04 08:36:25;;;;;;;3.20;1.90;;;13.30;99.90;;;;;;4952136;28;20530;-72
2022/11/04 08:38:51;;;;;;;3.47;2.37;;;13.40;99.90;;;;;;4950116;28;20210;-69
2022/11/04 08:41:19;;;;;;;4.77;2.47;;;13.50;99.90;;;;;;4948543;28;22179;-64
2022/11/04 08:43:46;;;;;;;3.73;2.00;;;13.50;99.90;;;;;;4948823;28;20179;-66
2022/11/04 08:46:12;;;;;;;3.93;2.30;;;13.60;99.90;;;;;;4954260;28;20427;-65
2022/11/04 08:48:39;;;;;;;3.23;2.00;;;13.60;99.90;;;;;;4953873;28;20786;-64
2022/11/04 08:51:09;;;;;;;4.57;1.93;;;13.50;99.90;;;;;;4951727;28;20470;-66
2022/11/04 08:53:37;;;;;;;4.93;2.10;;;13.60;99.90;;;;;;4948828;28;20446;-66
2022/11/04 08:56:16;;;;;;;4.10;2.33;;;13.70;99.90;;;;;;4950755;28;20636;-66
2022/11/04 08:58:41;;;;;;;4.90;2.37;;;13.60;99.90;;;;;;4954881;28;20443;-65
2022/11/04 09:01:09;;;;;;;5.40;1.93;;;13.70;99.90;;;;;;4956612;28;20856;-66
2022/11/04 09:03:37;;;;;;;3.17;2.07;;;13.70;99.90;;;;;;4957557;28;20221;-66
2022/11/04 09:06:04;;;;;;;5.33;2.23;;;13.70;99.90;;;;;;4952827;28;20931;-66
2022/11/04 09:08:29;;;;;;;4.80;2.17;;;13.80;99.90;;;;;;4954133;28;20457;-67
2022/11/04 09:10:55;;;;;;;3.47;2.20;;;13.90;99.90;;;;;;4953225;28;20484;-68
2022/11/04 09:13:21;;;;;;;6.03;2.13;;;13.90;99.90;;;;;;4956816;28;20194;-68
2022/11/04 09:15:47;;;;;;;4.30;2.63;;;13.90;99.90;;;;;;4954236;28;20241;-68
2022/11/04 09:18:13;;;;;;;3.97;2.00;;;13.90;99.90;;;;;;4951054;28;20284;-68
2022/11/04 09:20:41;;;;;;;4.33;2.13;;;14.10;99.90;;;;;;4954280;28;20606;-67
2022/11/04 09:23:07;;;;;;;6.53;1.80;;;14.20;99.90;;;;;;4954552;28;20434;-67
2022/11/04 09:25:33;;;;;;;4.33;2.27;;;14.20;99.90;;;;;;4953756;28;20446;-67
2022/11/04 09:28:00;;;;;;;4.93;2.40;;;14.30;99.90;;;;;;4962130;28;20449;-67
2022/11/04 09:30:25;;;;;;;5.60;1.80;;;14.40;99.90;;;;;;4952490;28;20456;-67
2022/11/04 09:32:51;;;;;;;4.40;2.00;;;14.30;99.90;;;;;;4953380;28;20800;-67
2022/11/04 09:35:17;;;;;;;3.67;2.03;;;14.40;99.90;;;;;;4949120;28;20211;-68
2022/11/04 09:37:43;;;;;;;3.83;2.07;;;14.40;99.90;;;;;;4951396;28;20496;-72
2022/11/04 09:40:22;;;;;;;7.73;2.47;;;14.40;99.90;;;;;;4947967;28;20433;-72
2022/11/04 09:43:02;;;;;;;2.97;1.70;;;14.30;99.90;;;;;;4947501;28;20979;-72
2022/11/04 09:45:30;;;;;;;3.50;1.60;;;14.40;99.90;;;;;;4963542;28;20842;-72
2022/11/04 09:48:10;;;;;;;6.20;3.97;;;14.30;99.90;;;;;;4945929;28;21178;-73
2022/11/04 09:50:52;;;;;;;4.10;2.13;;;14.40;99.90;;;;;;4949604;28;21102;-72
2022/11/04 09:53:48;;;;;;;4.20;1.83;;;14.60;99.90;;;;;;4948702;28;20452;-72
2022/11/04 09:56:16;;;;;;;3.47;2.03;;;14.60;99.90;;;;;;4950626;28;20442;-73
2022/11/04 09:58:42;;;;;;;4.07;2.40;;;14.70;99.90;;;;;;4952807;28;20466;-73
2022/11/04 10:01:35;;;;;;;4.83;2.30;;;14.80;99.90;;;;;;4950813;28;21183;-74
2022/11/04 10:04:33;;;;;;;11.63;2.60;;;14.80;99.90;;;;;;4947508;28;20537;-74
2022/11/04 10:07:20;;;;;;;5.50;2.60;;;14.80;99.90;;;;;;4949745;28;21014;-75
2022/11/04 10:09:57;;;;;;;7.10;1.93;;;14.70;99.90;;;;;;4946382;28;20445;-74
2022/11/04 10:12:41;;;;;;;6.50;2.27;;;14.60;99.90;;;;;;4946963;28;20441;-73
2022/11/04 10:15:15;;;;;;;4.97;2.40;;;14.50;99.90;;;;;;4946471;28;20804;-73
2022/11/04 10:18:03;;;;;;;5.90;2.77;;;14.50;99.90;;;;;;4947895;28;20857;-74
2022/11/04 10:20:34;;;;;;;8.23;3.30;;;14.60;99.90;;;;;;4942304;28;21056;-74
2022/11/04 10:23:14;;;;;;;5.17;2.70;;;14.40;99.90;;;;;;4949588;28;20442;-72
2022/11/04 10:25:52;;;;;;;5.00;2.90;;;14.40;99.90;;;;;;4951675;28;20549;-72
2022/11/04 10:28:20;;;;;;;7.80;2.67;;;14.50;99.90;;;;;;4947491;28;20438;-72
2022/11/04 10:30:49;;;;;;;2.47;1.70;;;14.50;99.90;;;;;;4954656;28;20451;-72
2022/11/04 10:33:37;;;;;;;6.27;1.97;;;14.60;99.90;;;;;;4951251;28;20470;-72
2022/11/04 10:36:11;;;;;;;5.83;2.20;;;14.60;99.90;;;;;;4945616;28;20804;-72
2022/11/04 10:38:44;;;;;;;8.63;1.80;;;14.60;99.90;;;;;;4947841;28;20581;-72
2022/11/04 10:41:38;;;;;;;5.73;1.90;;;14.70;99.90;;;;;;4943280;28;21065;-72
2022/11/04 10:44:07;;;;;;;3.80;1.73;;;14.80;99.90;;;;;;4953764;28;20457;-75
2022/11/04 10:46:48;;;;;;;8.20;2.00;;;14.80;99.90;;;;;;4945939;28;20433;-76
2022/11/04 10:49:37;;;;;;;5.00;1.87;;;14.90;99.90;;;;;;4950875;28;20886;-77
2022/11/04 10:52:04;;;;;;;3.80;1.63;;;15.00;99.90;;;;;;4947645;28;20461;-76
2022/11/04 10:54:42;;;;;;;8.17;2.40;;;15.10;99.90;;;;;;4948309;28;20473;-71
2022/11/04 10:57:09;;;;;;;3.40;1.70;;;15.10;99.90;;;;;;4951376;28;20493;-71
2022/11/04 10:59:58;;;;;;;3.70;1.53;;;15.00;99.90;;;;;;4949562;28;20473;-70
2022/11/04 11:02:36;;;;;;;4.50;1.73;;;14.80;99.90;;;;;;4950197;28;20811;-70
2022/11/04 11:05:22;;;;;;;6.20;2.07;;;14.70;99.90;;;;;;4945899;28;20453;-71
2022/11/04 11:07:54;;;;;;;4.67;2.00;;;14.80;99.90;;;;;;4947555;28;20426;-69
2022/11/04 11:10:31;;;;;;;3.43;1.90;;;14.80;99.90;;;;;;4945902;28;20488;-70
2022/11/04 11:13:01;;;;;;;5.07;1.87;;;14.80;99.90;;;;;;4952267;28;21088;-70
2022/11/04 11:15:28;;;;;;;5.30;2.03;;;14.50;99.90;;;;;;4956272;28;20493;-71
2022/11/04 11:18:15;;;;;;;4.20;1.80;;;14.60;99.90;;;;;;4946761;28;20438;-70
2022/11/04 11:20:49;;;;;;;4.37;1.80;;;14.80;99.90;;;;;;4953235;28;20486;-73
2022/11/04 11:23:32;;;;;;;3.77;1.77;;;14.80;99.90;;;;;;4953032;28;20456;-72
2022/11/04 11:25:58;;;;;;;3.63;2.00;;;14.80;99.90;;;;;;4957328;28;20998;-72
2022/11/04 11:28:25;;;;;;;5.20;2.33;;;14.80;99.90;;;;;;4954828;28;20509;-75
2022/11/04 11:30:56;;;;;;;5.77;2.00;;;15.00;99.90;;;;;;4955726;28;20448;-74
2022/11/04 11:33:34;;;;;;;5.60;1.87;;;15.10;99.90;;;;;;4951119;28;20935;-74
2022/11/04 11:36:05;;;;;;;4.50;1.87;;;15.10;99.90;;;;;;4947663;28;20611;-74
2022/11/04 11:38:32;;;;;;;8.07;2.27;;;15.20;99.90;;;;;;4943620;28;20532;-73
2022/11/04 11:41:17;;;;;;;3.50;1.50;;;15.30;99.90;;;;;;4952181;28;20474;-69
2022/11/04 11:43:48;;;;;;;2.70;1.90;;;15.40;99.90;;;;;;4952410;28;20434;-70
2022/11/04 11:46:21;;;;;;;4.00;2.23;;;15.70;99.90;;;;;;4953471;28;20885;-70
2022/11/04 11:48:52;;;;;;;8.17;2.73;;;15.90;99.90;;;;;;4950166;28;20442;-72
2022/11/04 11:51:30;;;;;;;3.77;2.03;;;16.00;99.90;;;;;;4954317;28;20442;-73
2022/11/04 11:54:36;;;;;;;3.40;2.00;;;16.20;99.90;;;;;;4951357;28;20461;-72
2022/11/04 11:57:16;;;;;;;3.27;2.10;;;16.40;99.90;;;;;;4950344;28;20494;-72
2022/11/04 11:59:51;;;;;;;3.90;2.13;;;16.60;99.90;;;;;;4953987;28;20497;-73
2022/11/04 12:02:31;;;;;;;5.00;2.77;;;17.00;99.90;;;;;;4956845;28;20893;-72
2022/11/04 12:04:57;;;;;;;4.57;1.97;;;17.40;99.90;;;;;;4954544;28;20438;-74
2022/11/04 12:07:28;;;;;;;7.33;2.30;;;17.90;99.90;;;;;;4948970;28;20442;-74
2022/11/04 12:09:53;;;;;;;5.23;1.87;;;18.30;99.90;;;;;;4948440;28;20186;-74
2022/11/04 12:12:34;;;;;;;3.63;1.80;;;18.70;99.90;;;;;;4949618;28;20735;-74
2022/11/04 12:15:21;;;;;;;3.57;1.90;;;18.90;99.90;;;;;;4950030;28;20490;-73
2022/11/04 12:18:01;;;;;;;3.80;2.00;;;19.70;99.90;;;;;;4951422;28;20438;-74
2022/11/04 12:20:58;;;;;;;4.43;2.70;;;20.60;99.90;;;;;;4950737;28;20928;-72
2022/11/04 12:23:29;;;;;;;4.60;2.17;;;21.40;99.90;;;;;;4948258;28;20438;-72
2022/11/04 12:26:07;;;;;;;3.73;2.20;;;22.00;99.90;;;;;;4952249;28;20560;-73
2022/11/04 12:28:42;;;;;;;3.47;2.33;;;22.70;99.90;;;;;;4951913;28;21311;-73
2022/11/04 12:31:25;;;;;;;4.60;2.10;;;23.10;99.90;;;;;;4953194;28;20528;-71
2022/11/04 12:34:08;;;;;;;4.27;2.23;;;23.00;99.90;;;;;;4957256;28;20754;-71
2022/11/04 12:37:22;;;;;;;5.00;2.47;;;22.60;99.90;;;;;;4950640;28;20516;-72
2022/11/04 12:40:10;;;;;;;3.43;1.90;;;22.20;99.90;;;;;;4976876;28;20822;-75
2022/11/04 12:43:00;;;;;;;5.63;2.30;;;21.70;99.90;;;;;;4952065;28;20946;-75
2022/11/04 12:45:55;;;;;;;4.03;2.20;;;21.40;99.90;;;;;;4953090;28;20466;-69
2022/11/04 12:49:07;;;;;;;3.50;2.23;;;21.00;99.90;;;;;;4949264;28;20465;-70
2022/11/04 12:51:49;;;;;;;7.00;3.33;;;20.40;99.90;;;;;;4952009;28;20438;-68
2022/11/04 12:54:45;;;;;;;5.33;2.60;;;19.90;99.90;;;;;;4949327;28;20469;-68
2022/11/04 12:57:35;;;;;;;7.33;2.60;;;19.90;99.90;;;;;;4955498;28;20499;-68
2022/11/04 13:00:13;;;;;;;7.80;2.90;;;19.80;99.90;;;;;;4956544;28;20465;-67
2022/11/04 13:03:19;;;;;;;3.93;1.80;;;19.90;99.90;;;;;;4954229;28;21396;-67
2022/11/04 13:05:57;;;;;;;3.20;1.80;;;19.90;99.90;;;;;;4952639;28;20791;-68
2022/11/04 13:08:41;;;;;;;3.33;2.13;;;19.80;99.90;;;;;;4953561;28;20445;-74
2022/11/04 13:11:23;;;;;;;3.07;1.80;;;19.30;99.90;;;;;;4952075;28;20441;-74
2022/11/04 13:14:08;;;;;;;4.33;2.20;;;19.50;99.90;;;;;;4954427;28;21055;-75
2022/11/04 13:16:38;;;;;;;4.07;1.93;;;19.60;99.90;;;;;;4959888;28;20532;-70
2022/11/04 13:19:15;;;;;;;4.30;2.30;;;19.50;99.90;;;;;;4955139;28;20430;-72
2022/11/04 13:21:41;;;;;;;4.33;1.87;;;19.40;99.90;;;;;;4951218;28;20442;-72
2022/11/04 13:24:29;;;;;;;4.03;2.20;;;19.10;99.90;;;;;;4953678;28;20469;-70
2022/11/04 13:26:58;;;;;;;2.17;1.60;;;18.80;99.90;;;;;;4951843;28;20187;-70
2022/11/04 13:29:25;;;;;;;3.47;2.00;;;18.90;99.90;;;;;;4954309;28;20446;-69
2022/11/04 13:32:15;;;;;;;2.90;1.90;;;19.10;99.90;;;;;;4952442;28;20690;-72
2022/11/04 13:35:17;;;;;;;3.87;2.77;;;18.90;99.90;;;;;;4949799;28;20501;-67
2022/11/04 13:38:12;;;;;;;7.30;2.00;;;18.70;99.90;;;;;;4951117;28;20442;-69
2022/11/04 13:41:14;;;;;;;3.47;1.97;;;18.40;99.90;;;;;;4952293;28;20881;-70
2022/11/04 13:43:48;;;;;;;4.33;2.20;;;18.10;99.90;;;;;;4948019;28;20483;-69
2022/11/04 13:46:17;;;;;;;4.17;2.07;;;17.90;99.90;;;;;;4953076;28;20438;-70